createdAt,value
2019-01-24T00:04:16.844Z,99.90
2019-01-24T00:09:02.631Z,99.90
2019-01-24T00:13:48.398Z,99.90
2019-01-24T00:18:34.215Z,99.90
2019-01-24T00:23:20.090Z,99.90
2019-01-24T00:28:05.936Z,99.90
2019-01-24T00:32:51.728Z,99.90
2019-01-24T00:37:37.564Z,99.90
2019-01-24T00:42:23.304Z,99.90
2019-01-24T00:47:09.153Z,99.90
2019-01-24T00:51:55.017Z,99.90
2019-01-24T00:56:40.874Z,99.90
2019-01-24T01:01:26.807Z,99.90
2019-01-24T01:06:12.677Z,99.90
2019-01-24T01:10:58.399Z,99.90
2019-01-24T01:15:44.137Z,99.90
2019-01-24T01:20:29.897Z,99.90
2019-01-24T01:25:15.816Z,99.90
2019-01-24T01:30:01.679Z,99.90
2019-01-24T01:34:47.529Z,99.90
2019-01-24T01:39:33.381Z,99.90
2019-01-24T01:44:19.125Z,99.90
2019-01-24T01:49:05.086Z,99.90
2019-01-24T01:53:50.824Z,99.90
2019-01-24T01:58:36.831Z,99.90
2019-01-24T02:03:22.615Z,99.90
2019-01-24T02:08:08.576Z,99.90
2019-01-24T02:12:54.464Z,99.90
2019-01-24T02:17:40.278Z,99.90
2019-01-24T02:22:26.059Z,99.90
2019-01-24T02:27:11.933Z,99.90
2019-01-24T02:31:57.631Z,99.90
2019-01-24T02:36:43.403Z,99.90
2019-01-24T02:41:29.203Z,99.90
2019-01-24T02:46:15.001Z,99.90
2019-01-24T02:51:00.750Z,99.90
2019-01-24T02:55:46.551Z,99.90
2019-01-24T03:00:32.321Z,99.90
2019-01-24T03:05:20.242Z,99.90
2019-01-24T03:10:08.166Z,99.90
2019-01-24T03:14:53.911Z,99.90
2019-01-24T03:19:39.710Z,99.90
2019-01-24T03:24:25.418Z,99.90
2019-01-24T03:29:11.174Z,99.90
2019-01-24T03:33:57.134Z,99.90
2019-01-24T03:38:42.911Z,99.90
2019-01-24T03:43:28.664Z,99.90
2019-01-24T03:48:14.466Z,99.90
2019-01-24T03:53:00.182Z,99.90
2019-01-24T03:57:46.224Z,99.90
2019-01-24T04:02:32.149Z,99.90
2019-01-24T04:07:17.977Z,99.90
2019-01-24T04:12:03.883Z,99.90
2019-01-24T04:16:49.657Z,99.90
2019-01-24T04:21:35.394Z,99.90
2019-01-24T04:26:21.175Z,99.90
2019-01-24T04:31:06.962Z,99.90
2019-01-24T04:35:52.771Z,99.90
2019-01-24T04:40:38.510Z,99.90
2019-01-24T04:45:24.298Z,99.90
2019-01-24T04:50:12.019Z,99.90
2019-01-24T04:54:57.683Z,99.90
2019-01-24T04:59:43.479Z,99.90
2019-01-24T05:04:29.325Z,99.90
2019-01-24T05:09:15.099Z,99.90
2019-01-24T05:14:00.924Z,99.90
2019-01-24T05:18:46.678Z,99.90
2019-01-24T05:23:32.522Z,99.10
2019-01-24T05:28:18.292Z,99.90
2019-01-24T05:33:04.031Z,99.90
2019-01-24T05:37:49.891Z,99.80
2019-01-24T05:42:35.773Z,99.90
2019-01-24T05:47:21.667Z,99.90
2019-01-24T05:52:07.601Z,99.90
2019-01-24T05:56:53.521Z,98.20
2019-01-24T06:01:40.088Z,98.70
2019-01-24T06:06:25.911Z,97.50
2019-01-24T06:11:11.718Z,98.90
2019-01-24T06:15:57.508Z,99.00
2019-01-24T06:20:43.335Z,98.30
2019-01-24T06:25:29.138Z,97.60
2019-01-24T06:30:17.552Z,97.90
2019-01-24T06:35:03.225Z,96.60
2019-01-24T06:39:48.978Z,97.40
2019-01-24T06:44:35.185Z,97.30
2019-01-24T06:49:20.991Z,98.00
2019-01-24T06:54:06.848Z,98.60
2019-01-24T06:58:52.682Z,99.80
2019-01-24T07:03:38.518Z,96.90
2019-01-24T07:08:24.402Z,97.50
2019-01-24T07:13:10.193Z,96.60
2019-01-24T07:17:55.965Z,96.40
2019-01-24T07:22:42.009Z,96.00
2019-01-24T07:27:27.764Z,97.00
2019-01-24T07:32:13.643Z,97.40
2019-01-24T07:36:59.423Z,95.00
2019-01-24T07:41:46.323Z,95.70
2019-01-24T07:46:32.009Z,94.30
2019-01-24T07:51:17.914Z,95.00
2019-01-24T07:56:03.889Z,94.80
2019-01-24T08:00:49.589Z,93.70
2019-01-24T08:05:35.461Z,92.90
2019-01-24T08:10:21.807Z,93.50
2019-01-24T08:15:08.666Z,93.20
2019-01-24T08:19:54.367Z,93.70
2019-01-24T08:24:40.095Z,92.10
2019-01-24T08:29:25.831Z,91.80
2019-01-24T08:34:11.631Z,92.40
2019-01-24T08:38:57.442Z,87.60
2019-01-24T08:43:43.251Z,86.90
2019-01-24T08:48:28.994Z,85.30
2019-01-24T08:53:14.770Z,81.40
2019-01-24T08:58:00.577Z,86.40
2019-01-24T09:02:46.903Z,86.20
2019-01-24T09:07:33.115Z,84.20
2019-01-24T09:12:18.865Z,85.00
2019-01-24T09:17:04.812Z,83.00
2019-01-24T09:21:50.570Z,82.20
2019-01-24T09:26:36.394Z,80.50
2019-01-24T09:31:22.194Z,79.00
2019-01-24T09:36:08.141Z,78.30
2019-01-24T09:40:54.048Z,78.60
2019-01-24T09:45:39.919Z,76.80
2019-01-24T09:50:26.035Z,75.40
2019-01-24T09:55:11.849Z,76.30
2019-01-24T09:59:57.561Z,75.50
2019-01-24T10:04:43.380Z,74.50
2019-01-24T10:09:29.223Z,74.00
2019-01-24T10:14:15.201Z,74.40
2019-01-24T10:19:01.023Z,74.10
2019-01-24T10:23:46.852Z,73.50
2019-01-24T10:28:32.694Z,73.70
2019-01-24T10:33:18.800Z,72.00
2019-01-24T10:38:05.135Z,71.20
2019-01-24T10:42:50.999Z,70.30
2019-01-24T10:47:37.000Z,70.20
2019-01-24T10:52:23.006Z,69.50
2019-01-24T10:57:09.203Z,69.80
2019-01-24T11:01:54.901Z,68.20
2019-01-24T11:06:40.970Z,64.10
2019-01-24T11:11:26.707Z,63.70
2019-01-24T11:16:12.790Z,62.10
2019-01-24T11:20:58.630Z,61.10
2019-01-24T11:25:44.525Z,60.70
2019-01-24T11:30:30.741Z,59.80
2019-01-24T11:35:17.571Z,59.60
2019-01-24T11:40:03.639Z,60.50
2019-01-24T11:44:49.584Z,60.00
2019-01-24T11:49:35.549Z,59.00
2019-01-24T11:54:21.331Z,59.00
2019-01-24T11:59:07.182Z,58.40
2019-01-24T12:03:53.124Z,56.10
2019-01-24T12:08:39.144Z,61.40
2019-01-24T12:13:25.078Z,59.40
2019-01-24T12:18:10.971Z,59.60
2019-01-24T12:22:57.020Z,57.90
2019-01-24T12:27:42.802Z,57.10
2019-01-24T12:32:28.651Z,61.90
2019-01-24T12:37:14.478Z,61.30
2019-01-24T12:42:00.415Z,59.80
2019-01-24T12:46:46.398Z,58.80
2019-01-24T12:51:32.225Z,57.20
2019-01-24T12:56:18.143Z,54.40
2019-01-24T13:01:03.950Z,55.40
2019-01-24T13:05:50.032Z,54.20
2019-01-24T13:10:36.105Z,55.00
2019-01-24T13:15:24.268Z,62.20
2019-01-24T13:20:12.357Z,78.20
2019-01-24T13:24:58.224Z,90.30
2019-01-24T13:29:44.159Z,99.00
2019-01-24T13:34:30.078Z,99.90
2019-01-24T13:39:16.047Z,99.90
2019-01-24T13:44:02.077Z,99.90
2019-01-24T13:48:47.892Z,99.90
2019-01-24T13:53:33.746Z,99.90
2019-01-24T13:58:20.020Z,99.90
2019-01-24T14:03:15.670Z,99.90
2019-01-24T14:08:01.803Z,99.90
2019-01-24T14:12:48.858Z,99.90
2019-01-24T14:17:35.102Z,99.90
2019-01-24T14:22:21.321Z,99.90
2019-01-24T14:27:07.362Z,99.90
2019-01-24T14:31:53.583Z,99.90
2019-01-24T14:36:39.589Z,99.90
2019-01-24T14:41:25.461Z,99.90
2019-01-24T14:46:11.397Z,99.90
2019-01-24T14:50:57.389Z,99.90
2019-01-24T14:55:43.327Z,99.90
2019-01-24T15:00:41.387Z,99.90
2019-01-24T15:05:27.545Z,99.90
2019-01-24T15:10:14.062Z,99.90
2019-01-24T15:14:59.993Z,99.90
2019-01-24T15:19:45.983Z,99.90
2019-01-24T15:24:32.065Z,99.90
2019-01-24T15:29:17.967Z,99.90
2019-01-24T15:34:04.027Z,99.90
2019-01-24T15:38:50.070Z,99.90
2019-01-24T15:43:36.059Z,99.90
2019-01-24T15:48:21.924Z,99.90
2019-01-24T15:53:08.060Z,99.90
2019-01-24T15:57:53.965Z,99.90
2019-01-24T16:02:40.068Z,99.90
2019-01-24T16:07:25.945Z,99.90
2019-01-24T16:12:12.158Z,99.90
2019-01-24T16:16:58.029Z,99.90
2019-01-24T16:21:44.223Z,99.90
2019-01-24T16:26:30.208Z,99.90
2019-01-24T16:31:16.328Z,99.90
2019-01-24T16:36:02.222Z,99.90
2019-01-24T16:40:49.034Z,99.90
2019-01-24T16:45:35.004Z,99.90
2019-01-24T16:50:21.187Z,99.90
2019-01-24T16:55:09.616Z,99.90
2019-01-24T16:59:55.582Z,99.90
2019-01-24T17:04:41.590Z,99.90
2019-01-24T17:09:27.469Z,99.90
2019-01-24T17:14:13.332Z,99.90
2019-01-24T17:18:59.298Z,99.90
2019-01-24T17:23:45.081Z,99.90
2019-01-24T17:28:31.076Z,99.90
2019-01-24T17:33:17.182Z,99.90
2019-01-24T17:38:03.125Z,99.90
2019-01-24T17:42:49.300Z,99.90
2019-01-24T17:47:35.235Z,99.90
2019-01-24T17:52:21.092Z,99.90
2019-01-24T17:57:07.316Z,99.90
2019-01-24T18:01:53.667Z,99.90
2019-01-24T18:06:39.772Z,99.90
2019-01-24T18:11:25.998Z,99.90
2019-01-24T18:16:12.278Z,99.90
2019-01-24T18:20:58.302Z,99.90
2019-01-24T18:25:44.383Z,99.90
2019-01-24T18:30:30.682Z,99.90
2019-01-24T18:35:16.951Z,99.90
2019-01-24T18:40:03.285Z,99.90
2019-01-24T18:44:49.427Z,99.90
2019-01-24T18:49:35.468Z,99.90
2019-01-24T18:54:21.432Z,99.90
2019-01-24T18:59:07.640Z,99.90
2019-01-24T19:03:53.703Z,99.90
2019-01-24T19:08:45.864Z,99.90
2019-01-24T19:13:29.117Z,99.90
2019-01-24T19:18:15.778Z,99.90
2019-01-24T19:23:02.023Z,99.90
2019-01-24T19:27:48.818Z,99.90
2019-01-24T19:32:34.918Z,99.90
2019-01-24T19:37:20.877Z,99.90
2019-01-24T19:42:07.124Z,99.90
2019-01-24T19:46:53.360Z,99.90
2019-01-24T19:51:39.725Z,99.90
2019-01-24T19:56:25.862Z,99.90
2019-01-24T20:01:12.100Z,99.90
2019-01-24T20:05:58.391Z,99.90
2019-01-24T20:10:44.433Z,99.90
2019-01-24T20:15:33.822Z,99.90
2019-01-24T20:20:22.311Z,99.90
2019-01-24T20:25:13.265Z,99.90
2019-01-24T20:30:02.018Z,99.90
2019-01-24T20:34:55.940Z,99.90
2019-01-24T20:39:42.866Z,99.90
2019-01-24T20:44:28.894Z,99.90
2019-01-24T20:49:15.254Z,99.90
2019-01-24T20:54:01.466Z,99.90
2019-01-24T20:58:47.509Z,99.90
2019-01-24T21:03:33.767Z,99.90
2019-01-24T21:08:19.969Z,99.90
2019-01-24T21:13:05.999Z,99.90
2019-01-24T21:17:52.202Z,99.90
2019-01-24T21:22:37.953Z,99.90
2019-01-24T21:27:23.944Z,99.90
2019-01-24T21:32:10.005Z,99.90
2019-01-24T21:36:56.395Z,99.90
2019-01-24T21:41:42.354Z,99.90
2019-01-24T21:46:28.555Z,99.90
2019-01-24T21:51:14.935Z,99.90
2019-01-24T21:56:00.751Z,99.90
2019-01-24T22:00:47.840Z,99.90
2019-01-24T22:05:33.877Z,99.90
2019-01-24T22:10:22.171Z,99.90
2019-01-24T22:15:11.268Z,99.90
2019-01-24T22:19:57.094Z,99.90
2019-01-24T22:24:42.989Z,99.90
2019-01-24T22:29:29.073Z,99.90
2019-01-24T22:34:14.985Z,99.90
2019-01-24T22:39:01.049Z,99.90
2019-01-24T22:43:46.974Z,99.90
2019-01-24T22:48:32.852Z,99.90
2019-01-24T22:53:18.608Z,99.90
2019-01-24T22:58:05.074Z,99.90
2019-01-24T23:02:50.890Z,99.90
2019-01-24T23:07:36.727Z,99.90
2019-01-24T23:12:22.700Z,99.90
2019-01-24T23:17:08.584Z,99.90
2019-01-24T23:21:54.525Z,99.90
2019-01-24T23:26:40.310Z,99.90
2019-01-24T23:31:26.145Z,99.90
2019-01-24T23:36:12.026Z,99.90
2019-01-24T23:40:57.891Z,99.90
2019-01-24T23:45:43.818Z,99.90
2019-01-24T23:50:29.763Z,99.90
2019-01-24T23:55:15.876Z,99.90
